Time;durP1;ratioP1;P1;durP2;ratioP2;P2;SDS_P1;SDS_P2;PMS_P1;PMS_P2;Temp;Humidity;BMP_temperature;BMP_pressure;BME280_temperature;BME280_humidity;BME280_pressure;Samples;Min_cycle;Max_cycle;Signal;HPM_P1;HPM_P2
2023/04/12 00:00:53;;;;;;;;;2.67;2.67;;;;;12.44;71.77;99954.56;5028969;28;45100;-59
2023/04/12 00:03:19;;;;;;;;;3.00;3.00;;;;;12.44;70.74;99950.97;5030767;28;45178;-60
2023/04/12 00:05:45;;;;;;;;;2.50;2.50;;;;;12.39;71.85;99939.34;5029903;28;45806;-60
2023/04/12 00:08:11;;;;;;;;;4.67;3.00;;;;;12.44;71.62;99945.59;5031137;28;45140;-59
2023/04/12 00:10:36;;;;;;;;;3.67;2.33;;;;;12.42;71.49;99936.69;5030702;28;45040;-60
2023/04/12 00:13:02;;;;;;;;;8.00;3.67;;;;;12.27;71.60;99911.59;5030876;28;45183;-59
2023/04/12 00:15:27;;;;;;;;;3.50;3.50;;;;;12.16;71.74;99883.88;5030788;28;45139;-59
2023/04/12 00:17:53;;;;;;;;;6.00;3.00;;;;;12.41;72.39;99913.47;5028907;28;45154;-58
2023/04/12 00:20:18;;;;;;;;;6.00;2.00;;;;;12.43;71.66;99927.75;5030203;28;45042;-60
2023/04/12 00:22:44;;;;;;;;;4.00;2.00;;;;;12.19;71.66;99872.28;5026807;28;45259;-59
2023/04/12 00:25:09;;;;;;;;;5.00;5.00;;;;;12.49;72.19;99906.38;5034793;28;45774;-61
2023/04/12 00:27:35;;;;;;;;;7.33;5.33;;;;;12.48;71.75;99908.13;5033507;28;45195;-60
2023/04/12 00:30:02;;;;;;;;;4.75;3.25;;;;;12.47;72.40;99892.97;5034000;28;45072;-59
2023/04/12 00:32:28;;;;;;;;;2.00;2.00;;;;;12.45;72.31;99889.38;5031661;28;47543;-59
2023/04/12 00:34:53;;;;;;;;;6.00;3.67;;;;;12.44;72.62;99884.00;5032452;28;45586;-59
2023/04/12 00:37:18;;;;;;;;;5.00;3.33;;;;;12.43;71.80;99876.88;5034112;28;45152;-60
2023/04/12 00:39:44;;;;;;;;;6.00;4.00;;;;;12.42;72.06;99881.31;5032631;28;45117;-60
2023/04/12 00:42:09;;;;;;;;;4.00;2.67;;;;;12.40;72.85;99863.44;5034666;28;44920;-60
2023/04/12 00:44:35;;;;;;;;;5.67;3.00;;;;;12.24;72.71;99836.59;5033496;28;51919;-59
2023/04/12 00:47:03;;;;;;;;;7.33;3.00;;;;;12.13;71.98;99800.84;5025732;28;45261;-60
2023/04/12 00:49:30;;;;;;;;;5.50;3.00;;;;;12.48;72.93;99864.38;5033306;28;45174;-60
2023/04/12 00:52:07;;;;;;;;;3.33;3.33;;;;;12.39;73.05;99835.78;5029836;28;45258;-61
2023/04/12 00:54:33;;;;;;;;;8.00;4.67;;;;;12.49;72.38;99834.91;5030091;28;46465;-59
2023/04/12 00:57:00;;;;;;;;;6.33;4.00;;;;;12.50;72.30;99830.44;5032239;28;45105;-59
2023/04/12 00:59:25;;;;;;;;;8.25;4.00;;;;;12.26;72.52;99791.06;5025471;28;45106;-59
2023/04/12 01:01:52;;;;;;;;;6.00;5.00;;;;;12.37;72.48;99820.56;5028240;28;45169;-58
2023/04/12 01:04:21;;;;;;;;;5.75;5.25;;;;;12.45;71.91;99816.16;5025890;28;45233;-59
2023/04/12 01:07:05;;;;;;;;;6.00;4.25;;;;;12.44;71.61;99814.34;5030133;28;45085;-59
2023/04/12 01:09:59;;;;;;;;;11.00;6.00;;;;;12.45;71.78;99782.19;5028695;28;45195;-60
2023/04/12 01:12:45;;;;;;;;;5.33;3.33;;;;;12.51;71.96;99774.19;5027405;28;45266;-59
2023/04/12 01:15:13;;;;;;;;;5.00;3.00;;;;;12.50;72.62;99771.50;5028963;28;45688;-60
2023/04/12 01:18:05;;;;;;;;;3.67;2.00;;;;;12.53;72.30;99766.16;5031399;28;45002;-59
2023/04/12 01:20:36;;;;;;;;;3.33;2.00;;;;;12.52;71.71;99759.91;5028180;28;47597;-59
2023/04/12 01:23:19;;;;;;;;;5.00;2.00;;;;;12.49;72.67;99759.03;5031984;28;46121;-59
2023/04/12 01:25:57;;;;;;;;;5.00;2.25;;;;;12.54;71.92;99765.28;5027020;28;45139;-60
2023/04/12 01:28:28;;;;;;;;;2.67;2.67;;;;;12.54;72.11;99755.44;5026670;28;45112;-60
2023/04/12 01:30:55;;;;;;;;;3.67;2.33;;;;;12.48;72.47;99744.72;5031296;28;45169;-60
2023/04/12 01:33:21;;;;;;;;;4.00;4.00;;;;;12.58;72.57;99747.41;5033026;28;45141;-60
2023/04/12 01:35:48;;;;;;;;;4.33;3.67;;;;;12.54;72.48;99727.78;5030960;28;47265;-61
2023/04/12 01:38:14;;;;;;;;;6.00;2.67;;;;;12.59;72.46;99736.72;5030384;28;45283;-59
2023/04/12 01:40:41;;;;;;;;;2.67;2.67;;;;;12.49;72.21;99709.00;5033083;28;45248;-58
2023/04/12 01:43:14;;;;;;;;;2.33;1.00;;;;;12.13;72.39;99649.13;5032216;28;45086;-59
2023/04/12 01:45:40;;;;;;;;;4.67;3.00;;;;;12.59;72.15;99715.28;5031330;28;45732;-58
2023/04/12 01:48:08;;;;;;;;;3.33;3.33;;;;;12.58;72.08;99713.47;5029480;28;45149;-59
2023/04/12 01:50:55;;;;;;;;;2.00;2.00;;;;;12.59;72.87;99696.53;5030809;28;45013;-59
2023/04/12 01:53:47;;;;;;;;;2.33;2.00;;;;;12.59;72.22;99701.88;5031873;28;45185;-58
2023/04/12 01:56:15;;;;;;;;;2.67;2.00;;;;;12.58;72.17;99692.03;5029070;28;45603;-59
2023/04/12 01:58:43;;;;;;;;;3.00;2.00;;;;;12.54;72.40;99680.44;5031315;28;44982;-61
2023/04/12 02:01:12;;;;;;;;;5.00;1.67;;;;;12.57;72.81;99674.16;5026251;28;45112;-60
2023/04/12 02:03:41;;;;;;;;;1.67;0.67;;;;;12.49;72.49;99675.97;5031508;28;45182;-61
2023/04/12 02:06:08;;;;;;;;;5.00;2.33;;;;;12.46;72.60;99665.25;5030776;28;45885;-59
2023/04/12 02:08:34;;;;;;;;;3.75;2.00;;;;;12.54;72.85;99675.06;5030817;28;45729;-60
2023/04/12 02:10:59;;;;;;;;;2.33;2.00;;;;;12.54;72.69;99672.41;5031274;28;45124;-59
2023/04/12 02:13:25;;;;;;;;;3.33;2.00;;;;;12.54;72.71;99674.19;5030943;28;45087;-59
2023/04/12 02:15:53;;;;;;;;;4.33;3.00;;;;;12.52;73.06;99660.78;5030507;28;45501;-61
2023/04/12 02:18:19;;;;;;;;;1.33;1.00;;;;;12.53;73.26;99645.59;5046497;28;45382;-60
2023/04/12 02:20:45;;;;;;;;;4.33;1.67;;;;;12.53;73.46;99654.53;5021613;28;45216;-60
2023/04/12 02:23:11;;;;;;;;;4.00;2.00;;;;;12.50;73.45;99629.50;5031837;28;45279;-60
2023/04/12 02:25:37;;;;;;;;;3.33;1.33;;;;;12.50;74.28;99641.13;5025673;28;45941;-61
2023/04/12 02:28:02;;;;;;;;;5.00;4.00;;;;;12.48;73.68;99626.84;5032196;28;45171;-59
2023/04/12 02:30:28;;;;;;;;;4.00;2.75;;;;;12.56;74.63;99632.22;5032404;28;45319;-59
2023/04/12 02:32:55;;;;;;;;;8.33;2.67;;;;;12.56;73.97;99625.97;5031526;28;45129;-60
2023/04/12 02:35:21;;;;;;;;;5.33;1.67;;;;;12.52;74.33;99611.66;5030902;28;45638;-60
2023/04/12 02:37:47;;;;;;;;;1.33;1.33;;;;;12.58;74.59;99611.66;5029014;28;45388;-59
2023/04/12 02:40:14;;;;;;;;;4.00;2.67;;;;;12.61;74.31;99610.78;5028883;28;45087;-60
2023/04/12 02:42:41;;;;;;;;;2.67;2.67;;;;;12.62;74.73;99601.81;5045377;28;45323;-60
2023/04/12 02:45:07;;;;;;;;;3.33;2.00;;;;;12.58;74.06;99590.22;5029829;28;45751;-60
2023/04/12 02:47:32;;;;;;;;;2.67;1.00;;;;;12.49;74.23;99575.06;5030501;28;45995;-60
2023/04/12 02:49:58;;;;;;;;;1.00;1.00;;;;;12.53;74.48;99579.50;5030547;28;45118;-61
2023/04/12 02:52:23;;;;;;;;;4.00;2.67;;;;;12.62;74.80;99575.94;5029944;28;44911;-60
2023/04/12 02:54:51;;;;;;;;;1.00;1.00;;;;;12.56;74.56;99565.22;5029229;28;45530;-59
2023/04/12 02:57:17;;;;;;;;;2.00;1.33;;;;;12.63;73.98;99582.19;5028661;28;45188;-59
2023/04/12 02:59:42;;;;;;;;;4.00;2.00;;;;;12.60;74.04;99572.34;5030650;28;45179;-58
2023/04/12 03:02:08;;;;;;;;;2.00;2.00;;;;;12.61;75.26;99576.81;5025719;28;45142;-60
2023/04/12 03:04:38;;;;;;;;;3.00;3.00;;;;;12.64;75.11;99571.47;5030122;28;45508;-61
2023/04/12 03:07:04;;;;;;;;;3.67;1.33;;;;;12.45;75.18;99540.22;5029413;28;45160;-60
2023/04/12 03:09:31;;;;;;;;;4.00;1.00;;;;;12.63;75.21;99575.03;5031425;28;44918;-60
2023/04/12 03:11:56;;;;;;;;;1.67;1.00;;;;;12.64;74.75;99571.47;5045481;28;45176;-60
2023/04/12 03:14:21;;;;;;;;;1.00;1.00;;;;;12.45;75.14;99527.72;5030849;28;47061;-61
2023/04/12 03:16:47;;;;;;;;;3.00;2.00;;;;;12.51;74.78;99533.06;5029981;28;61048;-59
2023/04/12 03:19:13;;;;;;;;;0.00;0.00;;;;;12.47;75.04;99539.34;5031601;28;45005;-61
2023/04/12 03:21:38;;;;;;;;;1.67;1.67;;;;;12.74;75.83;99575.03;5029513;28;53497;-60
2023/04/12 03:24:04;;;;;;;;;1.00;1.00;;;;;12.76;75.25;99585.75;5030568;28;45216;-61
2023/04/12 03:26:29;;;;;;;;;1.00;1.00;;;;;12.91;75.21;99609.84;5031077;28;45165;-60
2023/04/12 03:29:00;;;;;;;;;0.00;0.00;;;;;12.96;74.09;99600.00;5029781;28;45100;-59
2023/04/12 03:31:26;;;;;;;;;0.33;0.33;;;;;13.00;74.42;99593.75;5044795;28;45303;-60
2023/04/12 03:33:52;;;;;;;;;1.00;0.00;;;;;12.99;73.78;99594.63;5029158;28;46996;-60
2023/04/12 03:36:20;;;;;;;;;0.00;0.00;;;;;12.84;73.23;99590.19;5029114;28;45213;-60
2023/04/12 03:38:45;;;;;;;;;0.00;0.00;;;;;12.73;73.03;99600.03;5030040;28;44922;-60
2023/04/12 03:41:11;;;;;;;;;0.00;0.00;;;;;11.75;73.75;99443.81;5026913;28;45195;-60
2023/04/12 03:43:36;;;;;;;;;0.00;0.00;;;;;12.51;73.63;99593.81;5027158;28;47243;-61
2023/04/12 03:46:02;;;;;;;;;0.67;0.00;;;;;12.45;73.77;99586.66;5046476;28;45063;-59
2023/04/12 03:48:28;;;;;;;;;1.00;0.00;;;;;12.40;73.93;99588.44;5028820;28;44946;-59
2023/04/12 03:50:53;;;;;;;;;0.00;0.00;;;;;12.26;74.59;99567.03;5026473;28;45041;-59
2023/04/12 03:53:19;;;;;;;;;0.00;0.00;;;;;12.35;73.98;99563.44;5027593;28;45239;-59
2023/04/12 03:55:45;;;;;;;;;0.00;0.00;;;;;12.38;73.90;99557.22;5029182;28;45025;-60
2023/04/12 03:58:12;;;;;;;;;1.67;0.00;;;;;12.43;73.60;99560.78;5030417;28;45181;-60
2023/04/12 04:00:38;;;;;;;;;0.00;0.00;;;;;12.43;73.77;99550.94;5035016;28;45039;-60
2023/04/12 04:03:04;;;;;;;;;0.00;0.00;;;;;12.52;73.71;99556.31;5032129;28;46174;-60
2023/04/12 04:05:30;;;;;;;;;0.00;0.00;;;;;12.54;72.18;99565.22;5033891;28;45185;-60
2023/04/12 04:07:59;;;;;;;;;0.00;0.00;;;;;12.37;72.85;99531.31;5034971;28;45121;-60
2023/04/12 04:10:26;;;;;;;;;0.33;0.33;;;;;12.59;72.95;99573.25;5033795;28;45635;-59
2023/04/12 04:12:52;;;;;;;;;0.00;0.00;;;;;12.64;73.00;99568.78;5033631;28;46476;-60
2023/04/12 04:15:17;;;;;;;;;0.00;0.00;;;;;12.65;72.81;99565.19;5032920;28;45118;-59
2023/04/12 04:17:43;;;;;;;;;0.00;0.00;;;;;12.59;72.64;99548.22;5031313;28;44914;-59
2023/04/12 04:20:11;;;;;;;;;0.00;0.00;;;;;12.61;72.93;99547.34;5030145;28;45200;-59
2023/04/12 04:22:37;;;;;;;;;0.00;0.00;;;;;12.69;73.82;99555.41;5034164;28;45671;-59
2023/04/12 04:25:02;;;;;;;;;0.00;0.00;;;;;12.59;72.41;99530.41;5034285;28;45007;-61
2023/04/12 04:27:29;;;;;;;;;0.00;0.00;;;;;12.66;71.80;99545.56;5033870;28;44987;-59
2023/04/12 04:29:57;;;;;;;;;0.00;0.00;;;;;12.59;71.55;99551.84;5034353;28;45131;-60
2023/04/12 04:32:22;;;;;;;;;0.00;0.00;;;;;12.61;72.21;99558.06;5032829;28;46198;-60
2023/04/12 04:34:47;;;;;;;;;0.67;0.67;;;;;12.59;71.99;99548.22;5033510;28;45226;-59
2023/04/12 04:37:14;;;;;;;;;4.33;2.00;;;;;12.64;72.27;99552.72;5032620;28;45344;-59
2023/04/12 04:39:40;;;;;;;;;0.00;0.00;;;;;12.61;71.79;99550.03;5033817;28;45159;-60
2023/04/12 04:42:05;;;;;;;;;2.00;2.00;;;;;12.50;72.88;99536.63;5031782;28;46744;-60
2023/04/12 04:44:34;;;;;;;;;0.00;0.00;;;;;12.63;72.01;99556.28;5029994;28;54803;-59
2023/04/12 04:47:00;;;;;;;;;0.00;0.00;;;;;12.65;72.55;99556.28;5031470;28;45238;-60
2023/04/12 04:49:25;;;;;;;;;0.00;0.00;;;;;12.67;71.69;99563.44;5033375;28;45095;-60
2023/04/12 04:51:51;;;;;;;;;0.00;0.00;;;;;12.40;72.12;99513.44;5033516;28;45050;-58
2023/04/12 04:54:16;;;;;;;;;0.00;0.00;;;;;12.46;71.72;99532.19;5032339;28;45142;-59
2023/04/12 04:56:42;;;;;;;;;0.00;0.00;;;;;12.56;71.91;99543.78;5033952;28;45132;-61
2023/04/12 04:59:07;;;;;;;;;1.00;1.00;;;;;12.59;72.24;99542.88;5034753;28;44987;-59
2023/04/12 05:01:35;;;;;;;;;1.33;0.00;;;;;12.65;72.46;99546.44;5034489;28;45233;-59
2023/04/12 05:04:00;;;;;;;;;0.00;0.00;;;;;12.69;73.00;99537.50;5032074;28;45149;-60
2023/04/12 05:06:26;;;;;;;;;0.00;0.00;;;;;12.73;71.81;99538.41;5032021;28;45441;-60
2023/04/12 05:08:51;;;;;;;;;4.67;0.00;;;;;12.68;71.34;99534.84;5032170;28;45115;-60
2023/04/12 05:11:17;;;;;;;;;1.00;0.00;;;;;12.73;71.96;99541.06;5030024;28;45747;-60
2023/04/12 05:13:43;;;;;;;;;0.00;0.00;;;;;12.75;72.03;99533.03;5034013;28;45184;-60
2023/04/12 05:16:08;;;;;;;;;0.00;0.00;;;;;12.48;71.69;99498.25;5033515;28;45129;-59
2023/04/12 05:18:34;;;;;;;;;0.00;0.00;;;;;12.58;71.97;99519.69;5033743;28;45259;-60
2023/04/12 05:21:04;;;;;;;;;0.00;0.00;;;;;12.59;72.71;99516.09;5032534;28;45480;-59
2023/04/12 05:23:33;;;;;;;;;0.33;0.33;;;;;12.74;72.10;99542.88;5029017;28;45080;-60
2023/04/12 05:25:59;;;;;;;;;0.33;0.00;;;;;12.73;71.71;99555.34;5032750;28;45117;-60
2023/04/12 05:28:24;;;;;;;;;1.00;1.00;;;;;12.62;70.91;99575.94;5027126;28;55056;-60
2023/04/12 05:30:50;;;;;;;;;1.67;1.67;;;;;12.39;69.74;99558.97;5030012;28;45166;-59
2023/04/12 05:33:15;;;;;;;;;4.33;3.00;;;;;12.50;69.17;99583.97;5031885;28;45036;-59
2023/04/12 05:35:40;;;;;;;;;1.00;1.00;;;;;12.45;68.75;99589.31;5025514;28;45389;-60
2023/04/12 05:38:06;;;;;;;;;0.00;0.00;;;;;12.23;67.37;99561.66;5032171;28;45019;-60
2023/04/12 05:40:31;;;;;;;;;0.67;0.00;;;;;12.36;67.57;99600.06;5031345;28;45179;-59
2023/04/12 05:42:56;;;;;;;;;0.33;0.33;;;;;12.45;67.17;99610.75;5031335;28;44997;-59
2023/04/12 05:45:22;;;;;;;;;0.67;0.67;;;;;12.41;66.67;99606.31;5028448;28;45303;-60
2023/04/12 05:47:47;;;;;;;;;0.33;0.33;;;;;12.37;65.36;99592.91;5026397;28;45110;-61
2023/04/12 05:50:12;;;;;;;;;0.00;0.00;;;;;12.37;65.02;99593.78;5032019;28;56241;-59
2023/04/12 05:52:38;;;;;;;;;0.67;0.67;;;;;12.38;63.87;99608.09;5030768;28;45038;-60
2023/04/12 05:55:04;;;;;;;;;13.75;8.75;;;;;12.43;64.42;99617.03;5033445;28;45206;-61
2023/04/12 05:57:29;;;;;;;;;0.00;0.00;;;;;12.44;64.82;99626.81;5032289;28;44962;-60
2023/04/12 05:59:54;;;;;;;;;1.00;0.00;;;;;12.43;64.24;99627.75;5034585;28;46000;-61
2023/04/12 06:02:21;;;;;;;;;1.00;0.00;;;;;12.39;63.13;99642.00;5030838;28;45276;-60
2023/04/12 06:04:47;;;;;;;;;4.67;0.00;;;;;12.26;63.97;99628.63;5029916;28;44951;-60
2023/04/12 06:07:16;;;;;;;;;2.33;1.00;;;;;12.33;64.85;99640.22;5031681;28;45065;-60
2023/04/12 06:09:41;;;;;;;;;5.00;0.33;;;;;12.31;63.57;99653.63;5028836;28;45669;-59
2023/04/12 06:12:07;;;;;;;;;4.67;3.00;;;;;12.30;65.63;99637.53;5030558;28;45055;-59
2023/04/12 06:14:32;;;;;;;;;0.67;0.67;;;;;12.36;64.43;99637.56;5029465;28;45705;-61
2023/04/12 06:16:57;;;;;;;;;2.33;2.00;;;;;12.14;64.24;99607.16;5027481;28;45229;-59
2023/04/12 06:19:23;;;;;;;;;2.00;2.00;;;;;12.31;64.19;99625.94;5029745;28;56557;-60
2023/04/12 06:21:50;;;;;;;;;2.33;1.00;;;;;12.35;64.42;99627.72;5031225;28;45370;-61
2023/04/12 06:24:15;;;;;;;;;4.33;2.00;;;;;12.37;65.07;99636.66;5030480;28;45277;-60
2023/04/12 06:26:45;;;;;;;;;2.00;2.00;;;;;12.26;64.00;99620.56;5031055;28;45114;-60
2023/04/12 06:29:10;;;;;;;;;3.33;2.00;;;;;12.23;64.91;99625.94;5030222;28;45201;-60
2023/04/12 06:31:36;;;;;;;;;4.00;4.00;;;;;12.37;65.68;99644.69;5035948;28;45234;-60
2023/04/12 06:34:01;;;;;;;;;4.33;3.00;;;;;12.09;64.75;99611.59;5038695;28;45561;-60
2023/04/12 06:36:27;;;;;;;;;4.00;4.00;;;;;12.27;65.01;99645.56;5031424;28;45043;-61
2023/04/12 06:38:53;;;;;;;;;2.00;2.00;;;;;12.23;65.91;99655.38;5023555;28;46870;-61
2023/04/12 06:41:19;;;;;;;;;3.00;3.00;;;;;12.13;65.34;99654.47;5030076;28;45342;-60
2023/04/12 06:43:44;;;;;;;;;6.00;5.00;;;;;12.06;65.77;99646.41;5030625;28;45252;-59
2023/04/12 06:46:10;;;;;;;;;9.75;9.00;;;;;12.12;66.60;99627.69;5030231;28;45185;-59
2023/04/12 06:48:35;;;;;;;;;10.75;8.00;;;;;12.14;65.92;99625.91;5029195;28;45891;-60
2023/04/12 06:51:01;;;;;;;;;4.00;4.00;;;;;12.22;65.81;99637.50;5030146;28;45387;-60
2023/04/12 06:53:26;;;;;;;;;3.33;3.33;;;;;12.19;65.81;99623.22;5027584;28;45352;-60
2023/04/12 06:55:52;;;;;;;;;6.00;2.00;;;;;12.19;65.33;99644.66;5030827;28;45261;-60
2023/04/12 06:58:18;;;;;;;;;1.00;1.00;;;;;12.06;65.16;99649.09;5027967;28;45683;-61
2023/04/12 07:00:43;;;;;;;;;2.67;2.67;;;;;11.15;65.76;99510.56;5030590;28;44995;-60
2023/04/12 07:03:09;;;;;;;;;2.00;2.00;;;;;11.84;64.55;99665.03;5028601;28;44932;-60
2023/04/12 07:05:38;;;;;;;;;2.67;1.00;;;;;11.72;65.03;99659.66;5027478;28;45062;-59
2023/04/12 07:08:04;;;;;;;;;2.00;1.75;;;;;11.55;64.68;99662.22;5031191;28;45098;-59
2023/04/12 07:10:29;;;;;;;;;2.00;2.00;;;;;11.52;66.15;99651.56;5026552;28;45234;-60
2023/04/12 07:12:55;;;;;;;;;1.50;1.25;;;;;11.51;66.34;99655.09;5029134;28;45178;-62
2023/04/12 07:15:21;;;;;;;;;2.33;2.00;;;;;11.53;65.96;99662.25;5027515;28;45180;-60
2023/04/12 07:17:46;;;;;;;;;3.00;1.33;;;;;11.35;65.63;99595.28;5025836;28;46140;-61
2023/04/12 07:20:12;;;;;;;;;3.00;3.00;;;;;11.65;66.11;99628.41;5027663;28;45083;-62
2023/04/12 07:22:37;;;;;;;;;3.00;3.00;;;;;11.76;64.48;99634.69;5020354;28;46771;-61
2023/04/12 07:25:08;;;;;;;;;4.00;2.00;;;;;11.77;64.97;99623.09;5031286;28;44885;-59
2023/04/12 07:27:37;;;;;;;;;5.00;1.33;;;;;11.92;64.74;99622.28;5025366;28;45230;-61
2023/04/12 07:30:03;;;;;;;;;2.00;2.00;;;;;11.95;63.81;99631.22;5029779;28;44894;-59
2023/04/12 07:32:28;;;;;;;;;3.00;3.00;;;;;11.77;64.62;99596.34;5037695;28;45175;-62
2023/04/12 07:34:53;;;;;;;;;1.00;1.00;;;;;11.88;64.33;99602.63;5039791;28;45210;-62
2023/04/12 07:37:19;;;;;;;;;4.50;4.00;;;;;12.09;65.03;99616.97;5035117;28;46434;-60
2023/04/12 07:39:44;;;;;;;;;0.67;0.67;;;;;12.08;62.50;99599.13;5038982;28;45133;-60
2023/04/12 07:42:09;;;;;;;;;1.00;1.00;;;;;12.21;63.77;99617.00;5037230;28;45490;-59
2023/04/12 07:44:35;;;;;;;;;1.00;1.00;;;;;12.31;63.55;99617.91;5036450;28;45014;-60
2023/04/12 07:47:00;;;;;;;;;2.33;2.00;;;;;12.41;62.80;99608.09;5034253;28;46413;-59
2023/04/12 07:49:26;;;;;;;;;3.00;0.00;;;;;12.50;61.78;99602.72;5036085;28;45238;-61
2023/04/12 07:51:51;;;;;;;;;1.00;1.00;;;;;12.54;62.78;99596.50;5032836;28;45180;-60
2023/04/12 07:54:16;;;;;;;;;3.67;2.00;;;;;12.54;62.23;99591.13;5033217;28;45091;-61
2023/04/12 07:56:56;;;;;;;;;4.00;3.00;;;;;12.64;62.79;99600.94;5034065;28;45238;-66
2023/04/12 07:59:22;;;;;;;;;1.00;1.00;;;;;12.71;62.04;99608.06;5031288;28;45329;-61
2023/04/12 08:01:47;;;;;;;;;1.33;1.33;;;;;12.68;60.83;99615.22;5031722;28;45253;-63
2023/04/12 08:04:12;;;;;;;;;5.67;2.00;;;;;12.51;61.34;99599.16;5030698;28;57728;-62
2023/04/12 08:06:38;;;;;;;;;1.67;1.00;;;;;12.68;60.99;99625.94;5028492;28;47556;-63
2023/04/12 08:09:03;;;;;;;;;0.33;0.33;;;;;12.70;59.37;99632.19;5030850;28;45367;-61
2023/04/12 08:11:28;;;;;;;;;0.67;0.67;;;;;12.72;60.60;99634.00;5028570;28;45104;-61
2023/04/12 08:13:54;;;;;;;;;0.00;0.00;;;;;12.69;59.82;99625.94;5023748;28;45189;-63
2023/04/12 08:16:19;;;;;;;;;0.33;0.33;;;;;12.75;59.64;99635.75;5025551;28;67938;-61
2023/04/12 08:18:45;;;;;;;;;1.00;1.00;;;;;12.72;59.04;99634.00;5030882;28;45140;-61
2023/04/12 08:21:10;;;;;;;;;0.00;0.00;;;;;12.75;58.56;99645.59;5023505;28;46159;-61
2023/04/12 08:23:35;;;;;;;;;0.33;0.00;;;;;12.63;59.13;99647.38;5028437;28;45178;-62
2023/04/12 08:26:03;;;;;;;;;1.33;0.00;;;;;12.69;59.15;99678.66;5031463;28;46633;-61
2023/04/12 08:28:30;;;;;;;;;1.00;0.00;;;;;12.67;58.94;99680.44;5032826;28;45174;-60
2023/04/12 08:30:55;;;;;;;;;1.00;0.00;;;;;12.57;57.35;99662.56;5032866;28;45090;-61
2023/04/12 08:33:21;;;;;;;;;3.00;0.00;;;;;12.55;55.97;99684.00;5034761;28;45562;-59
2023/04/12 08:35:46;;;;;;;;;0.00;0.00;;;;;12.47;57.74;99683.09;5035139;28;46117;-61
2023/04/12 08:38:11;;;;;;;;;1.67;0.00;;;;;12.46;57.73;99671.50;5033839;28;46817;-60
2023/04/12 08:40:38;;;;;;;;;1.67;1.00;;;;;12.27;57.85;99643.78;5033203;28;59280;-60
2023/04/12 08:43:07;;;;;;;;;0.00;0.00;;;;;12.50;57.95;99677.75;5031761;28;45574;-60
2023/04/12 08:45:35;;;;;;;;;0.33;0.00;;;;;12.53;59.01;99675.94;5031949;28;45755;-61
2023/04/12 08:48:02;;;;;;;;;0.33;0.33;;;;;12.41;56.94;99646.47;5030336;28;45476;-60
2023/04/12 08:50:28;;;;;;;;;0.00;0.00;;;;;12.60;55.78;99679.53;5033040;28;45197;-63
2023/04/12 08:52:54;;;;;;;;;1.00;0.00;;;;;12.58;56.06;99677.75;5031316;28;45235;-60
2023/04/12 08:55:20;;;;;;;;;1.00;1.00;;;;;12.54;56.35;99669.72;5028717;28;45439;-61
2023/04/12 08:57:47;;;;;;;;;1.00;0.00;;;;;12.47;56.47;99651.84;5031227;28;45123;-61
2023/04/12 09:00:14;;;;;;;;;1.00;1.00;;;;;12.64;56.13;99686.69;5032025;28;45327;-60
2023/04/12 09:02:44;;;;;;;;;0.67;0.67;;;;;12.68;56.03;99701.88;5027495;28;45286;-61
2023/04/12 09:05:11;;;;;;;;;0.00;0.00;;;;;12.76;56.41;99683.13;5022226;28;45756;-61
2023/04/12 09:07:36;;;;;;;;;1.00;0.00;;;;;12.99;56.37;99692.97;5026041;28;45063;-60
2023/04/12 09:10:03;;;;;;;;;2.00;0.00;;;;;13.14;56.55;99697.41;5031592;28;45697;-59
2023/04/12 09:12:29;;;;;;;;;0.00;0.00;;;;;13.20;55.12;99692.03;5032639;28;45092;-60
2023/04/12 09:15:12;;;;;;;;;0.00;0.00;;;;;13.21;53.74;99696.50;5032890;28;45376;-61
2023/04/12 09:17:39;;;;;;;;;1.00;0.00;;;;;13.20;54.60;99697.38;5022046;28;45053;-61
2023/04/12 09:20:16;;;;;;;;;0.00;0.00;;;;;13.09;53.87;99706.34;5030692;28;45221;-61
2023/04/12 09:22:44;;;;;;;;;1.67;1.00;;;;;13.22;53.92;99696.50;5029438;28;45208;-60
2023/04/12 09:25:11;;;;;;;;;0.00;0.00;;;;;13.35;53.83;99697.41;5024505;28;47004;-59
2023/04/12 09:27:49;;;;;;;;;0.33;0.33;;;;;13.44;53.96;99699.19;5030833;28;45163;-61
2023/04/12 09:30:16;;;;;;;;;0.00;0.00;;;;;13.40;52.72;99675.94;5032657;28;45179;-62
2023/04/12 09:32:42;;;;;;;;;1.00;1.00;;;;;13.58;52.25;99697.34;5032781;28;45061;-61
2023/04/12 09:35:08;;;;;;;;;0.33;0.33;;;;;13.74;52.35;99692.84;5031459;28;45951;-60
2023/04/12 09:37:33;;;;;;;;;1.33;1.00;;;;;13.85;51.70;99690.09;5033320;28;45282;-60
2023/04/12 09:40:07;;;;;;;;;0.00;0.00;;;;;13.89;51.42;99683.84;5030967;28;45071;-61
2023/04/12 09:42:34;;;;;;;;;0.33;0.33;;;;;13.97;50.22;99687.38;5033208;28;45210;-61
2023/04/12 09:45:01;;;;;;;;;1.67;1.00;;;;;13.96;50.01;99688.28;5029793;28;45099;-60
2023/04/12 09:47:40;;;;;;;;;0.33;0.00;;;;;14.00;50.66;99687.34;5033066;28;45065;-60
2023/04/12 09:50:08;;;;;;;;;0.00;0.00;;;;;13.94;49.58;99676.66;5031474;28;45088;-63
2023/04/12 09:52:39;;;;;;;;;1.00;0.00;;;;;14.02;49.65;99703.44;5028961;28;45198;-62
2023/04/12 09:55:14;;;;;;;;;0.67;0.67;;;;;13.26;50.16;99580.28;5026452;28;45191;-60
2023/04/12 09:57:41;;;;;;;;;1.00;0.67;;;;;13.92;49.44;99721.38;5030498;28;45325;-64
2023/04/12 10:00:11;;;;;;;;;0.00;0.00;;;;;13.77;48.83;99713.41;5027635;28;45132;-60
2023/04/12 10:02:39;;;;;;;;;1.00;0.00;;;;;13.59;48.66;99688.38;5027563;28;45329;-61
2023/04/12 10:05:05;;;;;;;;;0.33;0.33;;;;;13.65;49.24;99706.28;5030802;28;47272;-60
2023/04/12 10:07:31;;;;;;;;;1.00;1.00;;;;;13.61;49.19;99699.13;5031844;28;45193;-59
2023/04/12 10:09:58;;;;;;;;;0.00;0.00;;;;;13.80;48.31;99708.03;5031554;28;45109;-60
2023/04/12 10:12:25;;;;;;;;;0.00;0.00;;;;;13.79;48.30;99700.84;5029011;28;45740;-61
2023/04/12 10:14:51;;;;;;;;;0.00;0.00;;;;;13.75;48.24;99715.22;5027984;28;45224;-59
2023/04/12 10:17:19;;;;;;;;;1.00;1.00;;;;;13.47;48.55;99696.50;5032120;28;45109;-59
2023/04/12 10:19:49;;;;;;;;;0.00;0.00;;;;;13.47;48.54;99709.03;5030840;28;45124;-58
2023/04/12 10:22:16;;;;;;;;;0.00;0.00;;;;;13.50;49.16;99717.94;5032152;28;44982;-60
2023/04/12 10:24:42;;;;;;;;;1.00;1.00;;;;;13.52;50.04;99699.16;5031765;28;44998;-60
2023/04/12 10:27:09;;;;;;;;;0.67;0.67;;;;;13.55;49.49;99704.53;5030986;28;45056;-60
2023/04/12 10:29:37;;;;;;;;;2.67;1.00;;;;;13.34;48.79;99662.53;5030989;28;45247;-59
2023/04/12 10:32:22;;;;;;;;;2.33;2.00;;;;;13.68;47.53;99721.47;5029300;28;45178;-60
2023/04/12 10:34:57;;;;;;;;;3.67;2.00;;;;;13.69;46.62;99691.06;5029023;28;45436;-60
2023/04/12 10:38:03;;;;;;;;;1.67;0.00;;;;;13.92;46.10;99707.06;5029676;28;45322;-60
2023/04/12 10:40:32;;;;;;;;;0.00;0.00;;;;;14.11;45.04;99703.41;5033056;28;45303;-61
2023/04/12 10:43:23;;;;;;;;;4.00;2.00;;;;;14.24;44.20;99701.56;5030747;28;45168;-60
2023/04/12 10:45:49;;;;;;;;;1.00;1.00;;;;;14.35;43.57;99709.56;5030778;28;46333;-59
2023/04/12 10:48:35;;;;;;;;;4.00;2.00;;;;;14.40;43.74;99690.72;5029693;28;45252;-59
2023/04/12 10:51:27;;;;;;;;;2.00;2.00;;;;;14.55;43.22;99702.28;5033107;28;45180;-61
2023/04/12 10:54:08;;;;;;;;;5.00;2.00;;;;;14.50;42.25;99703.19;5030879;28;45140;-59
2023/04/12 10:56:38;;;;;;;;;3.00;1.00;;;;;14.47;43.19;99712.19;5034764;28;45305;-58
2023/04/12 10:59:06;;;;;;;;;0.67;0.00;;;;;14.43;43.08;99713.09;5033863;28;45022;-59
2023/04/12 11:01:32;;;;;;;;;1.00;1.00;;;;;14.32;43.22;99677.31;5030988;28;45088;-60
2023/04/12 11:04:12;;;;;;;;;2.00;2.00;;;;;14.62;43.37;99721.06;5032587;28;45158;-60
2023/04/12 11:06:42;;;;;;;;;4.00;1.00;;;;;14.44;42.03;99698.75;5032953;28;45909;-60
2023/04/12 11:09:16;;;;;;;;;1.33;1.00;;;;;14.64;41.91;99720.16;5030902;28;45124;-59
2023/04/12 11:11:42;;;;;;;;;4.00;3.00;;;;;14.61;41.64;99709.41;5024140;28;46521;-58
2023/04/12 11:14:13;;;;;;;;;0.00;0.00;;;;;14.50;41.31;99687.06;5030936;28;45108;-59
2023/04/12 11:17:09;;;;;;;;;2.33;2.33;;;;;14.69;41.74;99712.94;5031071;28;45784;-60
2023/04/12 11:19:45;;;;;;;;;2.00;2.00;;;;;14.85;41.35;99699.38;5026232;28;45207;-60
2023/04/12 11:22:14;;;;;;;;;8.00;4.00;;;;;14.98;41.90;99709.16;5029485;28;45218;-62
2023/04/12 11:24:42;;;;;;;;;4.67;3.00;;;;;15.04;41.27;99721.66;5032741;28;45242;-59
2023/04/12 11:27:08;;;;;;;;;0.67;0.00;;;;;14.83;41.61;99695.81;5026860;28;45216;-60
2023/04/12 11:29:34;;;;;;;;;0.33;0.33;;;;;14.90;41.74;99711.91;5029048;28;45109;-61
2023/04/12 11:32:02;;;;;;;;;1.00;1.00;;;;;14.79;41.93;99700.34;5028868;28;45303;-59
2023/04/12 11:34:35;;;;;;;;;1.00;1.00;;;;;14.81;42.14;99708.38;5030355;28;45229;-60
2023/04/12 11:37:04;;;;;;;;;1.00;1.00;;;;;14.86;42.19;99699.38;5026905;28;47778;-59